createdAt,value
2023-02-03T00:00:10.190Z,99265.50
2023-02-03T00:02:38.143Z,99264.28
2023-02-03T00:05:09.185Z,99259.19
2023-02-03T00:07:39.100Z,99260.78
2023-02-03T00:10:08.514Z,99259.75
2023-02-03T00:12:36.755Z,99261.81
2023-02-03T00:15:05.964Z,99262.94
2023-02-03T00:17:33.922Z,99268.22
2023-02-03T00:20:02.230Z,99270.78
2023-02-03T00:22:32.178Z,99273.25
2023-02-03T00:25:00.363Z,99267.91
2023-02-03T00:27:28.736Z,99271.53
2023-02-03T00:29:57.078Z,99261.16
2023-02-03T00:32:25.383Z,99265.63
2023-02-03T00:34:53.600Z,99270.78
2023-02-03T00:37:23.568Z,99262.81
2023-02-03T00:39:53.055Z,99277.97
2023-02-03T00:42:20.937Z,99281.28
2023-02-03T00:44:49.676Z,99288.91
2023-02-03T00:47:17.672Z,99294.84
2023-02-03T00:49:45.709Z,99290.31
2023-02-03T00:52:14.500Z,99289.69
2023-02-03T00:54:42.848Z,99295.22
2023-02-03T00:57:12.071Z,99277.19
2023-02-03T00:59:40.861Z,99266.44
2023-02-03T01:02:08.868Z,99275.75
2023-02-03T01:04:36.817Z,99280.50
2023-02-03T01:07:05.433Z,99288.91
2023-02-03T01:09:35.180Z,99283.75
2023-02-03T01:12:03.132Z,99267.28
2023-02-03T01:14:33.582Z,99254.53
2023-02-03T01:17:02.194Z,99240.53
2023-02-03T01:19:30.114Z,99242.75
2023-02-03T01:21:58.034Z,99246.84
2023-02-03T01:24:25.912Z,99246.41
2023-02-03T01:26:54.211Z,99256.91
2023-02-03T01:29:22.565Z,99264.66
2023-02-03T01:31:52.408Z,99255.00
2023-02-03T01:34:20.979Z,99251.09
2023-02-03T01:36:48.821Z,99241.25
2023-02-03T01:39:17.180Z,99233.59
2023-02-03T01:41:45.642Z,99230.38
2023-02-03T01:44:41.099Z,99238.00
2023-02-03T01:47:18.600Z,99228.25
2023-02-03T01:49:50.979Z,99247.59
2023-02-03T01:52:19.879Z,99238.81
2023-02-03T01:54:51.459Z,99255.81
2023-02-03T01:57:24.503Z,99249.31
2023-02-03T01:59:55.107Z,99250.91
2023-02-03T02:02:24.892Z,99237.31
2023-02-03T02:04:57.881Z,99225.78
2023-02-03T02:07:26.865Z,99226.34
2023-02-03T02:09:56.683Z,99216.69
2023-02-03T02:12:24.730Z,99215.47
2023-02-03T02:14:53.441Z,99201.28
2023-02-03T02:17:53.150Z,99178.50
2023-02-03T02:20:47.600Z,99168.00
2023-02-03T02:23:54.976Z,99156.03
2023-02-03T02:26:55.235Z,99170.22
2023-02-03T02:29:54.927Z,99162.97
2023-02-03T02:32:36.720Z,99159.47
2023-02-03T02:35:16.878Z,99148.53
2023-02-03T02:37:52.758Z,99130.47
2023-02-03T02:40:27.179Z,99124.50
2023-02-03T02:43:10.231Z,99139.31
2023-02-03T02:45:49.268Z,99174.66
2023-02-03T02:48:24.707Z,99174.25
2023-02-03T02:50:56.938Z,99189.25
2023-02-03T02:53:28.194Z,99189.66
2023-02-03T02:55:59.341Z,99193.56
2023-02-03T02:58:30.582Z,99187.41
2023-02-03T03:00:59.703Z,99177.34
2023-02-03T03:03:29.249Z,99166.41
2023-02-03T03:06:01.170Z,99148.72
2023-02-03T03:08:35.317Z,99133.53
2023-02-03T03:11:04.816Z,99145.88
2023-02-03T03:13:38.267Z,99148.13
2023-02-03T03:16:09.162Z,99153.06
2023-02-03T03:18:44.492Z,99145.47
2023-02-03T03:21:18.306Z,99149.19
2023-02-03T03:23:51.454Z,99147.53
2023-02-03T03:26:25.206Z,99157.81
2023-02-03T03:29:04.271Z,99158.63
2023-02-03T03:31:32.683Z,99169.09
2023-02-03T03:34:02.337Z,99180.59
2023-02-03T03:36:34.626Z,99184.09
2023-02-03T03:39:06.844Z,99170.38
2023-02-03T03:41:43.393Z,99189.25
2023-02-03T03:44:16.297Z,99188.25
2023-02-03T03:46:50.463Z,99202.63
2023-02-03T03:49:21.523Z,99208.78
2023-02-03T03:51:53.766Z,99207.91
2023-02-03T03:54:25.107Z,99212.34
2023-02-03T03:56:58.559Z,99215.22
2023-02-03T03:59:30.160Z,99226.72
2023-02-03T04:02:05.273Z,99232.72
2023-02-03T04:04:37.655Z,99235.84
2023-02-03T04:07:06.474Z,99229.91
2023-02-03T04:09:36.635Z,99233.78
2023-02-03T04:12:06.257Z,99232.34
2023-02-03T04:14:39.077Z,99223.94
2023-02-03T04:17:07.463Z,99221.00
2023-02-03T04:19:36.829Z,99216.69
2023-02-03T04:22:04.764Z,99223.03
2023-02-03T04:24:32.674Z,99227.75
2023-02-03T04:27:00.516Z,99229.78
2023-02-03T04:29:28.532Z,99232.28
2023-02-03T04:31:56.804Z,99221.31
2023-02-03T04:34:24.733Z,99208.59
2023-02-03T04:36:54.617Z,99210.00
2023-02-03T04:39:22.974Z,99209.59
2023-02-03T04:41:50.867Z,99200.56
2023-02-03T04:44:19.169Z,99200.94
2023-02-03T04:46:47.015Z,99217.16
2023-02-03T04:49:14.912Z,99216.28
2023-02-03T04:51:44.743Z,99214.00
2023-02-03T04:54:14.107Z,99194.47
2023-02-03T04:56:42.434Z,99192.25
2023-02-03T04:59:10.627Z,99186.66
2023-02-03T05:01:38.626Z,99200.00
2023-02-03T05:04:06.533Z,99202.22
2023-02-03T05:06:36.172Z,99197.66
2023-02-03T05:09:04.240Z,99203.81
2023-02-03T05:11:33.906Z,99207.88
2023-02-03T05:14:02.061Z,99208.44
2023-02-03T05:16:29.989Z,99207.50
2023-02-03T05:18:57.892Z,99210.09
2023-02-03T05:21:26.284Z,99205.78
2023-02-03T05:23:54.212Z,99200.81
2023-02-03T05:26:22.220Z,99196.94
2023-02-03T05:28:53.458Z,99204.50
2023-02-03T05:31:21.896Z,99213.97
2023-02-03T05:33:50.189Z,99208.38
2023-02-03T05:36:18.730Z,99212.06
2023-02-03T05:38:46.824Z,99231.78
2023-02-03T05:41:32.762Z,99226.50
2023-02-03T05:44:02.126Z,99226.88
2023-02-03T05:46:30.185Z,99232.22
2023-02-03T05:48:58.694Z,99235.97
2023-02-03T05:51:26.651Z,99217.66
2023-02-03T05:53:54.712Z,99189.50
2023-02-03T05:56:24.468Z,99187.53
2023-02-03T05:58:53.514Z,99177.88
2023-02-03T06:01:22.949Z,99189.13
2023-02-03T06:03:51.320Z,99201.66
2023-02-03T06:06:19.711Z,99210.84
2023-02-03T06:08:47.725Z,99203.94
2023-02-03T06:11:16.263Z,99196.13
2023-02-03T06:13:44.231Z,99194.47
2023-02-03T06:16:12.889Z,99193.63
2023-02-03T06:18:43.072Z,99184.78
2023-02-03T06:21:11.352Z,99201.25
2023-02-03T06:23:39.617Z,99203.88
2023-02-03T06:26:08.065Z,99203.88
2023-02-03T06:28:38.193Z,99204.06
2023-02-03T06:31:07.295Z,99197.69
2023-02-03T06:33:35.851Z,99199.91
2023-02-03T06:36:06.081Z,99198.06
2023-02-03T06:38:33.998Z,99196.22
2023-02-03T06:41:02.173Z,99178.38
2023-02-03T06:43:30.157Z,99182.31
2023-02-03T06:45:58.329Z,99167.31
2023-02-03T06:48:26.920Z,99172.00
2023-02-03T06:50:55.817Z,99166.28
2023-02-03T06:53:25.180Z,99161.50
2023-02-03T06:55:53.711Z,99151.28
2023-02-03T06:58:21.974Z,99151.09
2023-02-03T07:00:51.509Z,99161.78
2023-02-03T07:03:19.836Z,99161.13
2023-02-03T07:05:47.910Z,99172.06
2023-02-03T07:08:15.917Z,99162.78
2023-02-03T07:10:46.062Z,99164.25
2023-02-03T07:13:14.146Z,99155.59
2023-02-03T07:15:42.271Z,99162.22
2023-02-03T07:18:11.823Z,99168.78
2023-02-03T07:20:41.092Z,99160.56
2023-02-03T07:23:09.984Z,99155.22
2023-02-03T07:25:38.591Z,99162.41
2023-02-03T07:28:08.142Z,99166.47
2023-02-03T07:30:36.235Z,99156.63
2023-02-03T07:33:04.828Z,99167.19
2023-02-03T07:35:33.061Z,99164.25
2023-02-03T07:38:01.880Z,99168.00
2023-02-03T07:40:30.658Z,99175.38
2023-02-03T07:42:59.898Z,99186.44
2023-02-03T07:45:29.331Z,99193.06
2023-02-03T07:47:57.993Z,99201.91
2023-02-03T07:50:26.413Z,99207.81
2023-02-03T07:52:55.665Z,99200.19
2023-02-03T07:55:24.813Z,99198.34
2023-02-03T07:57:54.896Z,99208.63
2023-02-03T08:00:23.332Z,99219.59
2023-02-03T08:02:53.587Z,99229.81
2023-02-03T08:05:21.988Z,99228.34
2023-02-03T08:07:49.979Z,99215.63
2023-02-03T08:10:18.444Z,99242.16
2023-02-03T08:12:47.143Z,99245.84
2023-02-03T08:15:17.370Z,99229.25
2023-02-03T08:17:46.735Z,99217.09
2023-02-03T08:20:16.635Z,99218.31
2023-02-03T08:22:45.110Z,99231.66
2023-02-03T08:25:14.391Z,99231.72
2023-02-03T08:27:43.011Z,99229.25
2023-02-03T08:30:14.760Z,99222.31
2023-02-03T08:32:43.273Z,99211.06
2023-02-03T08:35:11.627Z,99207.50
2023-02-03T08:37:41.252Z,99224.34
2023-02-03T08:40:11.422Z,99232.63
2023-02-03T08:42:39.522Z,99250.16
2023-02-03T08:45:08.754Z,99263.34
2023-02-03T08:47:39.819Z,99248.50
2023-02-03T08:50:09.885Z,99228.34
2023-02-03T08:52:38.244Z,99239.75
2023-02-03T08:55:08.952Z,99234.41
2023-02-03T08:57:38.043Z,99234.84
2023-02-03T09:00:07.382Z,99250.63
2023-02-03T09:02:35.950Z,99245.72
2023-02-03T09:05:04.277Z,99237.78
2023-02-03T09:07:32.855Z,99229.78
2023-02-03T09:10:01.232Z,99225.06
2023-02-03T09:12:30.771Z,99218.06
2023-02-03T09:14:59.271Z,99222.94
2023-02-03T09:17:28.752Z,99212.06
2023-02-03T09:19:56.821Z,99213.50
2023-02-03T09:22:24.898Z,99232.84
2023-02-03T09:24:53.286Z,99231.44
2023-02-03T09:27:21.441Z,99237.75
2023-02-03T09:29:50.882Z,99250.09
2023-02-03T09:32:19.287Z,99240.66
2023-02-03T09:34:47.418Z,99238.19
2023-02-03T09:37:15.449Z,99235.00
2023-02-03T09:39:44.123Z,99218.13
2023-02-03T09:42:38.549Z,99216.72
2023-02-03T09:45:20.125Z,99219.22
2023-02-03T09:47:54.091Z,99215.31
2023-02-03T09:50:24.542Z,99225.19
2023-02-03T09:52:54.104Z,99221.28
2023-02-03T09:55:31.153Z,99213.66
2023-02-03T09:58:05.264Z,99217.47
2023-02-03T10:00:38.712Z,99207.34
2023-02-03T10:03:14.567Z,99202.88
2023-02-03T10:05:53.711Z,99206.44
2023-02-03T10:08:31.316Z,99199.66
2023-02-03T10:11:12.797Z,99193.94
2023-02-03T10:14:03.807Z,99216.00
2023-02-03T10:16:50.949Z,99225.19
2023-02-03T10:19:23.604Z,99221.53
2023-02-03T10:21:55.774Z,99216.81
2023-02-03T10:24:28.929Z,99217.22
2023-02-03T10:26:58.333Z,99223.81
2023-02-03T10:29:33.377Z,99225.06
2023-02-03T10:32:03.744Z,99232.09
2023-02-03T10:34:32.128Z,99229.81
2023-02-03T10:37:04.982Z,99229.44
2023-02-03T10:39:44.795Z,99226.97
2023-02-03T10:42:15.236Z,99212.34
2023-02-03T10:44:46.310Z,99203.28
2023-02-03T10:47:30.165Z,99211.69
2023-02-03T10:50:00.392Z,99207.75
2023-02-03T10:52:32.353Z,99212.91
2023-02-03T10:55:07.498Z,99212.94
2023-02-03T10:57:39.766Z,99216.66
2023-02-03T11:00:22.621Z,99204.06
2023-02-03T11:03:00.893Z,99192.78
2023-02-03T11:05:29.369Z,99181.00
2023-02-03T11:07:57.364Z,99194.41
2023-02-03T11:10:36.355Z,99201.69
2023-02-03T11:13:22.706Z,99180.47
2023-02-03T11:15:57.413Z,99162.94
2023-02-03T11:18:38.231Z,99159.25
2023-02-03T11:21:12.493Z,99166.06
2023-02-03T11:23:47.667Z,99159.66
2023-02-03T11:26:17.646Z,99169.53
2023-02-03T11:28:49.052Z,99158.25
2023-02-03T11:31:22.008Z,99159.66
2023-02-03T11:33:55.957Z,99163.56
2023-02-03T11:36:27.735Z,99168.13
2023-02-03T11:39:18.800Z,99165.66
2023-02-03T11:41:47.723Z,99165.03
2023-02-03T11:44:26.184Z,99151.03
2023-02-03T11:46:59.049Z,99152.28
2023-02-03T12:03:19.486Z,99151.25
2023-02-03T12:06:02.244Z,99136.19
2023-02-03T12:08:46.510Z,99116.63
2023-02-03T12:11:28.952Z,99128.56
2023-02-03T12:14:23.805Z,99133.72
2023-02-03T12:17:09.288Z,99138.66
2023-02-03T12:19:51.425Z,99147.94
2023-02-03T12:22:29.199Z,99140.94
2023-02-03T12:25:08.399Z,99122.59
2023-02-03T12:27:49.900Z,99135.19
2023-02-03T12:30:24.858Z,99123.84
2023-02-03T12:32:56.502Z,99106.94
2023-02-03T12:35:34.257Z,99109.22
2023-02-03T12:38:06.622Z,99092.53
2023-02-03T12:40:40.764Z,99084.69
2023-02-03T12:43:22.572Z,99081.16
2023-02-03T12:45:56.369Z,99089.44
2023-02-03T12:48:29.144Z,99082.00
2023-02-03T12:51:03.658Z,99066.13
2023-02-03T12:53:35.972Z,99063.66
2023-02-03T12:56:11.235Z,99063.25
2023-02-03T12:58:43.276Z,99064.28
2023-02-03T13:01:16.341Z,99063.44
2023-02-03T13:03:52.432Z,99069.22
2023-02-03T13:06:28.338Z,99064.06
2023-02-03T13:09:02.614Z,99061.81
2023-02-03T13:11:37.129Z,99065.50
2023-02-03T13:14:15.481Z,99067.78
2023-02-03T13:16:47.452Z,99052.53
2023-02-03T13:19:21.892Z,99045.94
2023-02-03T13:21:53.248Z,99037.47
2023-02-03T13:24:24.860Z,99036.44
2023-02-03T13:27:15.212Z,99045.53
2023-02-03T13:29:59.513Z,99041.19
2023-02-03T13:32:51.453Z,99038.31
2023-02-03T13:35:36.425Z,99031.72
2023-02-03T13:38:24.931Z,99030.47
2023-02-03T13:41:02.403Z,99021.81
2023-02-03T13:43:38.521Z,99013.56
2023-02-03T13:46:20.061Z,99000.78
2023-02-03T13:48:53.055Z,99001.81
2023-02-03T13:51:24.081Z,99002.25
2023-02-03T13:54:00.014Z,99006.34
2023-02-03T13:56:29.510Z,99011.31
2023-02-03T13:59:06.308Z,99030.25
2023-02-03T14:01:38.556Z,99038.72
2023-02-03T14:04:09.222Z,99021.19
2023-02-03T14:07:02.289Z,99018.94
2023-02-03T14:10:15.014Z,99014.81
2023-02-03T14:13:00.301Z,99025.94
2023-02-03T14:15:34.642Z,99018.31
2023-02-03T14:18:21.411Z,99020.78
2023-02-03T14:21:11.151Z,99023.88
2023-02-03T14:23:45.620Z,99038.94
2023-02-03T14:26:23.522Z,99030.47
2023-02-03T14:28:53.855Z,99040.38
2023-02-03T14:31:23.069Z,99040.16
2023-02-03T14:34:15.433Z,99012.75
2023-02-03T14:36:55.163Z,99017.28
2023-02-03T14:39:56.862Z,99021.59
2023-02-03T14:43:04.898Z,99019.13
2023-02-03T14:46:09.252Z,99030.25
2023-02-03T14:49:04.502Z,99043.47
2023-02-03T14:51:45.157Z,99042.63
2023-02-03T14:54:33.288Z,99043.88
2023-02-03T14:57:18.894Z,99049.22
2023-02-03T14:59:50.902Z,99045.53
2023-02-03T15:02:23.619Z,99064.06
2023-02-03T15:04:53.761Z,99041.19
2023-02-03T15:07:39.203Z,99040.38
2023-02-03T15:10:15.090Z,99031.28
2023-02-03T15:12:47.875Z,99033.97
2023-02-03T15:15:22.241Z,99040.38
2023-02-03T15:17:50.951Z,99037.69
2023-02-03T15:20:29.071Z,99044.06
2023-02-03T15:22:57.458Z,99052.94
2023-02-03T15:25:27.460Z,99055.41
2023-02-03T15:27:56.117Z,99054.59
2023-02-03T15:30:28.650Z,99068.59
2023-02-03T15:33:06.830Z,99057.47
2023-02-03T15:35:38.064Z,99059.31
2023-02-03T15:38:09.460Z,99067.16
2023-02-03T15:40:44.420Z,99073.13
2023-02-03T15:43:18.776Z,99062.63
2023-02-03T15:46:00.821Z,99086.94
2023-02-03T15:48:39.135Z,99076.63
2023-02-03T15:51:17.084Z,99087.56
2023-02-03T15:53:54.512Z,99080.75
2023-02-03T15:56:27.189Z,99088.38
2023-02-03T15:58:55.561Z,99080.53
2023-02-03T16:01:28.625Z,99093.94
2023-02-03T16:03:58.833Z,99097.44
2023-02-03T16:06:35.915Z,99084.88
2023-02-03T16:09:08.198Z,99080.53
2023-02-03T16:11:38.492Z,99080.94
2023-02-03T16:14:08.260Z,99093.50
2023-02-03T16:16:49.397Z,99105.84
2023-02-03T16:19:24.466Z,99097.81
2023-02-03T16:21:55.727Z,99094.53
2023-02-03T16:24:38.796Z,99081.75
2023-02-03T16:27:33.305Z,99089.13
2023-02-03T16:30:39.965Z,99072.66
2023-02-03T16:33:33.991Z,99076.16
2023-02-03T16:36:33.941Z,99075.97
2023-02-03T16:39:22.459Z,99074.50
2023-02-03T16:42:07.657Z,99077.56
2023-02-03T16:44:53.778Z,99072.88
2023-02-03T16:47:45.116Z,99073.25
2023-02-03T16:50:39.672Z,99045.44
2023-02-03T16:53:14.405Z,99066.06
2023-02-03T16:55:43.091Z,99077.78
2023-02-03T16:58:12.491Z,99094.47
2023-02-03T17:00:41.850Z,99081.50
2023-02-03T17:03:12.790Z,99075.97
2023-02-03T17:05:44.589Z,99091.00
2023-02-03T17:08:13.832Z,99094.31
2023-02-03T17:10:43.751Z,99089.75
2023-02-03T17:13:13.016Z,99089.13
2023-02-03T17:15:43.617Z,99086.47
2023-02-03T17:18:12.008Z,99083.78
2023-02-03T17:20:43.048Z,99067.72
2023-02-03T17:23:13.903Z,99064.00
2023-02-03T17:25:42.163Z,99078.47
2023-02-03T17:28:12.951Z,99074.72
2023-02-03T17:30:41.264Z,99084.22
2023-02-03T17:33:12.391Z,99078.66
2023-02-03T17:35:42.781Z,99074.75
2023-02-03T17:38:14.428Z,99088.75
2023-02-03T17:54:41.518Z,99105.84
2023-02-03T17:57:10.224Z,99122.34
2023-02-03T17:59:39.741Z,99101.75
2023-02-03T18:02:07.886Z,99094.75
2023-02-03T18:04:36.643Z,99098.88
2023-02-03T18:07:04.751Z,99117.00
2023-02-03T18:09:33.138Z,99111.03
2023-02-03T18:12:02.648Z,99114.34
2023-02-03T18:14:30.847Z,99111.03
2023-02-03T18:16:58.964Z,99115.97
2023-02-03T18:19:27.289Z,99122.16
2023-02-03T18:21:55.312Z,99119.06
2023-02-03T18:24:28.349Z,99125.25
2023-02-03T18:26:56.804Z,99131.00
2023-02-03T18:29:26.995Z,99119.47
2023-02-03T18:31:56.165Z,99122.53
2023-02-03T18:34:25.190Z,99118.81
2023-02-03T18:36:53.146Z,99123.16
2023-02-03T18:39:21.817Z,99114.50
2023-02-03T18:41:49.894Z,99133.88
2023-02-03T18:44:18.256Z,99130.75
2023-02-03T18:47:31.593Z,99121.28
2023-02-03T18:50:43.190Z,99115.28
2023-02-03T18:53:33.009Z,99122.06
2023-02-03T18:57:07.788Z,99133.81
2023-02-03T18:59:52.122Z,99127.00
2023-02-03T19:03:13.653Z,99132.56
2023-02-03T19:09:31.277Z,99144.72
2023-02-03T19:12:45.731Z,99137.28
2023-02-03T19:19:38.971Z,99151.72
2023-02-03T19:23:25.563Z,99138.75
2023-02-03T20:26:55.956Z,99150.00
2023-02-03T21:19:13.192Z,99170.94
2023-02-03T21:22:47.914Z,99158.38
2023-02-03T21:26:26.153Z,99176.53
2023-02-03T21:29:23.953Z,99190.75
2023-02-03T21:36:50.717Z,99163.31
2023-02-03T23:04:47.069Z,99217.72
2023-02-03T23:07:15.542Z,99225.56
2023-02-03T23:09:43.406Z,99231.53
2023-02-03T23:12:11.370Z,99235.06
2023-02-03T23:14:39.329Z,99219.19
2023-02-03T23:17:07.232Z,99213.63
2023-02-03T23:19:35.596Z,99217.72
2023-02-03T23:22:04.917Z,99223.31
2023-02-03T23:24:32.778Z,99224.53
2023-02-03T23:27:00.756Z,99221.66
2023-02-03T23:29:29.272Z,99223.53
2023-02-03T23:31:57.200Z,99226.41
2023-02-03T23:34:43.428Z,99226.41
2023-02-03T23:37:12.714Z,99227.03
2023-02-03T23:39:40.612Z,99229.09
2023-02-03T23:42:08.926Z,99229.09
2023-02-03T23:44:36.851Z,99233.44
2023-02-03T23:47:04.792Z,99230.75
2023-02-03T23:49:33.104Z,99232.16
2023-02-03T23:52:00.974Z,99220.44
2023-02-03T23:54:30.235Z,99225.19
2023-02-03T23:56:58.650Z,99235.28
2023-02-03T23:59:26.530Z,99239.81
